Time;durP1;ratioP1;P1;durP2;ratioP2;P2;SDS_P1;SDS_P2;PMS_P1;PMS_P2;Temp;Humidity;BMP_temperature;BMP_pressure;BME280_temperature;BME280_humidity;BME280_pressure;Samples;Min_cycle;Max_cycle;Signal;HPM_P1;HPM_P2
2024/01/01 00:02:19;;;;;;;;;;;4.70;99.90;;;;;;5082256;28;19925;-71
2024/01/01 00:04:46;;;;;;;;;;;4.70;99.90;;;;;;5081138;28;19924;-71
2024/01/01 00:07:14;;;;;;;;;;;4.70;99.90;;;;;;5074449;28;19929;-71
2024/01/01 00:09:40;;;;;;;;;;;4.70;99.90;;;;;;5075473;28;19928;-71
2024/01/01 00:12:08;;;;;;;;;;;4.70;99.90;;;;;;5074815;28;19971;-71
2024/01/01 00:14:34;;;;;;;;;;;4.70;99.90;;;;;;5077308;28;19924;-71
2024/01/01 00:17:01;;;;;;;;;;;4.70;99.90;;;;;;5075795;28;20011;-71
2024/01/01 00:19:28;;;;;;;;;;;4.70;99.90;;;;;;5077730;28;19925;-71
2024/01/01 00:21:54;;;;;;;;;;;4.80;99.90;;;;;;5080322;28;19977;-71
2024/01/01 00:24:22;;;;;;;;;;;4.80;99.90;;;;;;5079674;28;19981;-71
2024/01/01 00:26:48;;;;;;;;;;;4.70;99.90;;;;;;5081250;28;19924;-71
2024/01/01 00:29:15;;;;;;;;;;;4.80;99.90;;;;;;5078828;28;19929;-71
2024/01/01 00:31:43;;;;;;;;;;;5.00;99.90;;;;;;5083067;28;19924;-71
2024/01/01 00:34:09;;;;;;;;;;;5.10;99.90;;;;;;5084896;28;20019;-71
2024/01/01 00:36:35;;;;;;;;;;;5.30;99.90;;;;;;5079262;28;19928;-71
2024/01/01 00:39:02;;;;;;;;;;;5.40;99.90;;;;;;5082648;28;19924;-72
2024/01/01 00:41:30;;;;;;;;;;;5.50;99.90;;;;;;5084161;28;19924;-71
2024/01/01 00:43:56;;;;;;;;;;;5.60;99.90;;;;;;5083978;28;19969;-71
2024/01/01 00:46:23;;;;;;;;;;;5.60;99.90;;;;;;5086317;28;20382;-71
2024/01/01 00:48:50;;;;;;;;;;;5.70;99.90;;;;;;5083661;28;19931;-71
2024/01/01 00:51:17;;;;;;;;;;;5.70;99.90;;;;;;5082936;28;20390;-72
2024/01/01 00:53:43;;;;;;;;;;;5.70;99.90;;;;;;5081096;28;19932;-71
2024/01/01 00:56:10;;;;;;;;;;;5.70;99.90;;;;;;5085168;28;20306;-71
2024/01/01 00:58:37;;;;;;;;;;;5.70;99.90;;;;;;5083328;28;19931;-71
2024/01/01 01:01:04;;;;;;;;;;;5.60;99.90;;;;;;5084417;28;19977;-71
2024/01/01 01:03:34;;;;;;;;;;;5.60;99.90;;;;;;5078068;28;19925;-72
2024/01/01 01:06:00;;;;;;;;;;;5.70;99.90;;;;;;5079732;28;20014;-72
2024/01/01 01:08:27;;;;;;;;;;;5.70;99.90;;;;;;5084486;28;19936;-71
2024/01/01 01:10:53;;;;;;;;;;;5.70;99.90;;;;;;5084726;28;19977;-72
2024/01/01 01:13:20;;;;;;;;;;;5.70;99.90;;;;;;5081890;28;19939;-71
2024/01/01 01:15:48;;;;;;;;;;;5.60;99.90;;;;;;5087445;28;19936;-72
2024/01/01 01:18:15;;;;;;;;;;;5.60;99.90;;;;;;5088118;28;19932;-71
2024/01/01 01:20:41;;;;;;;;;;;5.70;99.90;;;;;;5087181;28;19928;-71
2024/01/01 01:23:08;;;;;;;;;;;5.70;99.90;;;;;;5086392;28;20045;-72
2024/01/01 01:25:35;;;;;;;;;;;5.70;99.90;;;;;;5083128;28;20340;-71
2024/01/01 01:28:02;;;;;;;;;;;5.70;99.90;;;;;;5087582;28;19934;-71
2024/01/01 01:30:29;;;;;;;;;;;5.70;99.90;;;;;;5080883;28;19936;-71
2024/01/01 01:32:57;;;;;;;;;;;5.70;99.90;;;;;;5081563;28;19931;-69
2024/01/01 01:35:23;;;;;;;;;;;5.70;99.90;;;;;;5082041;28;19970;-72
2024/01/01 01:37:49;;;;;;;;;;;5.70;99.90;;;;;;5086328;28;19924;-72
2024/01/01 01:40:16;;;;;;;;;;;5.70;99.90;;;;;;5078121;28;19924;-72
2024/01/01 01:42:45;;;;;;;;;;;5.70;99.90;;;;;;5091027;28;19936;-70
2024/01/01 01:45:11;;;;;;;;;;;5.70;99.90;;;;;;5089581;28;19932;-69
2024/01/01 01:47:38;;;;;;;;;;;5.70;99.90;;;;;;5087235;28;19924;-69
2024/01/01 01:50:07;;;;;;;;;;;5.70;99.90;;;;;;5088240;28;19993;-69
2024/01/01 01:52:32;;;;;;;;;;;5.70;99.90;;;;;;5089067;28;20014;-69
2024/01/01 01:54:59;;;;;;;;;;;5.70;99.90;;;;;;5089189;28;20011;-69
2024/01/01 01:57:26;;;;;;;;;;;5.70;99.90;;;;;;5087600;28;19928;-69
2024/01/01 01:59:53;;;;;;;;;;;5.70;99.90;;;;;;5088918;28;20389;-70
2024/01/01 02:02:22;;;;;;;;;;;5.70;99.90;;;;;;5092148;28;19970;-69
2024/01/01 02:04:49;;;;;;;;;;;5.80;99.90;;;;;;5087334;28;20367;-69
2024/01/01 02:07:16;;;;;;;;;;;5.90;99.90;;;;;;5086390;28;19970;-69
2024/01/01 02:09:43;;;;;;;;;;;6.00;99.90;;;;;;5087393;28;20294;-72
2024/01/01 02:12:09;;;;;;;;;;;6.10;99.90;;;;;;5087607;28;19928;-71
2024/01/01 02:14:37;;;;;;;;;;;6.20;99.90;;;;;;5088936;28;19924;-72
2024/01/01 02:17:03;;;;;;;;;;;6.30;99.90;;;;;;5088151;28;19977;-72
2024/01/01 02:19:30;;;;;;;;;;;6.30;99.90;;;;;;5080401;28;19924;-72
2024/01/01 02:21:57;;;;;;;;;;;6.50;99.90;;;;;;5086457;28;19943;-72
2024/01/01 02:24:25;;;;;;;;;;;6.30;99.90;;;;;;5088224;28;19924;-69
2024/01/01 02:26:51;;;;;;;;;;;6.30;99.90;;;;;;5091446;28;20397;-69
2024/01/01 02:29:18;;;;;;;;;;;6.20;99.90;;;;;;5090535;28;19924;-69
2024/01/01 02:31:45;;;;;;;;;;;6.20;99.90;;;;;;5085910;28;20451;-69
2024/01/01 02:34:12;;;;;;;;;;;6.10;99.90;;;;;;5085020;28;19927;-69
2024/01/01 02:36:40;;;;;;;;;;;6.10;99.90;;;;;;5088714;28;20386;-69
2024/01/01 02:39:07;;;;;;;;;;;6.10;99.90;;;;;;5088182;28;19924;-69
2024/01/01 02:41:35;;;;;;;;;;;6.10;99.90;;;;;;5091818;28;20302;-69
2024/01/01 02:44:02;;;;;;;;;;;6.00;99.90;;;;;;5090559;28;19928;-70
2024/01/01 02:46:28;;;;;;;;;;;6.10;99.90;;;;;;5084635;28;20680;-70
2024/01/01 02:48:55;;;;;;;;;;;6.10;99.90;;;;;;5086872;28;19924;-70
2024/01/01 02:51:21;;;;;;;;;;;6.10;99.90;;;;;;5090489;28;20279;-70
2024/01/01 02:53:48;;;;;;;;;;;6.10;99.90;;;;;;5089848;28;19932;-70
2024/01/01 02:56:17;;;;;;;;;;;6.10;99.90;;;;;;5089606;28;19924;-69
2024/01/01 02:58:45;;;;;;;;;;;6.10;99.90;;;;;;5080997;28;19925;-70
2024/01/01 03:01:12;;;;;;;;;;;6.10;99.90;;;;;;5087337;28;19928;-69
2024/01/01 03:03:38;;;;;;;;;;;6.10;99.90;;;;;;5087361;28;19924;-70
2024/01/01 03:06:06;;;;;;;;;;;6.10;99.90;;;;;;5084909;28;19928;-70
2024/01/01 03:08:36;;;;;;;;;;;6.10;99.90;;;;;;5091709;28;19934;-70
2024/01/01 03:11:03;;;;;;;;;;;6.00;99.90;;;;;;5086789;28;19977;-70
2024/01/01 03:13:30;;;;;;;;;;;6.00;99.90;;;;;;5082214;28;20398;-70
2024/01/01 03:15:57;;;;;;;;;;;6.00;99.90;;;;;;5088672;28;19924;-70
2024/01/01 03:18:24;;;;;;;;;;;6.00;99.90;;;;;;5087202;28;19924;-70
2024/01/01 03:20:50;;;;;;;;;;;5.90;99.90;;;;;;5088908;28;19928;-70
2024/01/01 03:23:17;;;;;;;;;;;5.90;99.90;;;;;;5090468;28;19936;-70
2024/01/01 03:25:44;;;;;;;;;;;5.80;99.90;;;;;;5081953;28;19970;-70
2024/01/01 03:28:10;;;;;;;;;;;5.80;99.90;;;;;;5086712;28;19970;-70
2024/01/01 03:30:37;;;;;;;;;;;5.70;99.90;;;;;;5087764;28;19936;-70
2024/01/01 03:33:05;;;;;;;;;;;5.70;99.90;;;;;;5091003;28;20397;-70
2024/01/01 03:35:31;;;;;;;;;;;5.80;99.90;;;;;;5085167;28;19993;-69
2024/01/01 03:37:58;;;;;;;;;;;5.80;99.90;;;;;;5087275;28;19931;-69
2024/01/01 03:40:24;;;;;;;;;;;5.80;99.90;;;;;;5085188;28;19924;-70
2024/01/01 03:42:51;;;;;;;;;;;5.80;99.90;;;;;;5086027;28;20013;-70
2024/01/01 03:45:18;;;;;;;;;;;5.80;99.90;;;;;;5086317;28;19924;-70
2024/01/01 03:47:44;;;;;;;;;;;5.90;99.90;;;;;;5090059;28;19924;-70
2024/01/01 03:50:14;;;;;;;;;;;5.90;99.90;;;;;;5088489;28;19932;-70
2024/01/01 03:52:40;;;;;;;;;;;5.80;99.90;;;;;;5082789;28;19977;-70
2024/01/01 03:55:07;;;;;;;;;;;5.80;99.90;;;;;;5088425;28;20368;-69
2024/01/01 03:57:34;;;;;;;;;;;5.80;99.90;;;;;;5085609;28;20048;-70
2024/01/01 04:00:00;;;;;;;;;;;5.70;99.90;;;;;;5090581;28;20274;-69
2024/01/01 04:02:27;;;;;;;;;;;5.80;99.90;;;;;;5089633;28;19994;-70
2024/01/01 04:04:53;;;;;;;;;;;5.80;99.90;;;;;;5087321;28;19978;-70
2024/01/01 04:07:21;;;;;;;;;;;6.00;99.90;;;;;;5088025;28;19924;-69
2024/01/01 04:09:48;;;;;;;;;;;6.10;99.90;;;;;;5090631;28;20352;-69
2024/01/01 04:12:14;;;;;;;;;;;5.90;99.90;;;;;;5093117;28;19924;-70
2024/01/01 04:14:41;;;;;;;;;;;6.20;99.90;;;;;;5090583;28;19946;-70
2024/01/01 04:17:07;;;;;;;;;;;6.30;99.90;;;;;;5088655;28;19932;-70
2024/01/01 04:19:34;;;;;;;;;;;6.30;99.90;;;;;;5086582;28;20344;-70
2024/01/01 04:22:00;;;;;;;;;;;6.30;99.90;;;;;;5092806;28;19924;-70
2024/01/01 04:24:28;;;;;;;;;;;6.30;99.90;;;;;;5090947;28;19977;-71
2024/01/01 04:26:54;;;;;;;;;;;6.30;99.90;;;;;;5090905;28;19969;-70
2024/01/01 04:29:21;;;;;;;;;;;6.30;99.90;;;;;;5091356;28;19932;-70
2024/01/01 04:31:47;;;;;;;;;;;6.20;99.90;;;;;;5087242;28;19924;-71
2024/01/01 04:34:14;;;;;;;;;;;6.20;99.90;;;;;;5090593;28;20398;-70
2024/01/01 04:36:41;;;;;;;;;;;6.20;99.90;;;;;;5088887;28;19928;-70
2024/01/01 04:39:08;;;;;;;;;;;6.20;99.90;;;;;;5093685;28;19947;-70
2024/01/01 04:41:36;;;;;;;;;;;6.20;99.90;;;;;;5094291;28;20305;-70
2024/01/01 04:44:03;;;;;;;;;;;6.20;99.90;;;;;;5087748;28;19928;-70
2024/01/01 04:46:29;;;;;;;;;;;6.30;99.90;;;;;;5087444;28;19927;-70
2024/01/01 04:48:56;;;;;;;;;;;6.20;99.90;;;;;;5093115;28;19932;-70
2024/01/01 04:51:22;;;;;;;;;;;6.20;99.90;;;;;;5090280;28;20009;-70
2024/01/01 04:53:49;;;;;;;;;;;6.20;99.90;;;;;;5093780;28;19924;-70
2024/01/01 04:56:16;;;;;;;;;;;6.20;99.90;;;;;;5091949;28;20344;-70
2024/01/01 04:58:44;;;;;;;;;;;6.20;99.90;;;;;;5087370;28;19924;-70
2024/01/01 05:01:11;;;;;;;;;;;6.20;99.90;;;;;;5090415;28;20394;-70
2024/01/01 05:03:37;;;;;;;;;;;6.20;99.90;;;;;;5091957;28;19927;-70
2024/01/01 05:06:04;;;;;;;;;;;6.10;99.90;;;;;;5090326;28;20340;-70
2024/01/01 05:08:31;;;;;;;;;;;6.10;99.90;;;;;;5093706;28;20447;-71
2024/01/01 05:10:58;;;;;;;;;;;6.10;99.90;;;;;;5085817;28;19931;-70
2024/01/01 05:13:24;;;;;;;;;;;6.10;99.90;;;;;;5085670;28;20333;-70
2024/01/01 05:15:52;;;;;;;;;;;6.10;99.90;;;;;;5090805;28;19928;-70
2024/01/01 05:18:18;;;;;;;;;;;6.10;99.90;;;;;;5089604;28;20348;-70
2024/01/01 05:20:45;;;;;;;;;;;6.10;99.90;;;;;;5091611;28;19944;-70
2024/01/01 05:23:11;;;;;;;;;;;6.10;99.90;;;;;;5091077;28;20340;-70
2024/01/01 05:25:38;;;;;;;;;;;6.10;99.90;;;;;;5086771;28;19924;-70
2024/01/01 05:28:07;;;;;;;;;;;6.00;99.90;;;;;;5088104;28;19928;-71
2024/01/01 05:30:34;;;;;;;;;;;6.00;99.90;;;;;;5090527;28;19924;-70
2024/01/01 05:33:02;;;;;;;;;;;5.90;99.90;;;;;;5090870;28;19924;-70
2024/01/01 05:35:28;;;;;;;;;;;5.80;99.90;;;;;;5093386;28;20298;-70
2024/01/01 05:37:55;;;;;;;;;;;5.80;99.90;;;;;;5087414;28;20290;-70
2024/01/01 05:40:22;;;;;;;;;;;5.70;99.90;;;;;;5088828;28;19977;-70
2024/01/01 05:42:48;;;;;;;;;;;5.60;99.90;;;;;;5088905;28;19924;-70
2024/01/01 05:45:15;;;;;;;;;;;5.50;99.90;;;;;;5092399;28;19924;-70
2024/01/01 05:47:41;;;;;;;;;;;5.50;99.90;;;;;;5091359;28;19928;-70
2024/01/01 05:50:09;;;;;;;;;;;5.50;99.90;;;;;;5088359;28;19924;-70
2024/01/01 05:52:36;;;;;;;;;;;5.40;99.90;;;;;;5087247;28;19932;-70
2024/01/01 05:55:03;;;;;;;;;;;5.40;99.90;;;;;;5091092;28;19932;-70
2024/01/01 05:57:29;;;;;;;;;;;5.40;99.90;;;;;;5086439;28;19924;-70
2024/01/01 05:59:56;;;;;;;;;;;5.40;99.90;;;;;;5090478;28;19924;-70
2024/01/01 06:02:22;;;;;;;;;;;5.40;99.90;;;;;;5088898;28;20378;-70
2024/01/01 06:04:49;;;;;;;;;;;5.40;99.90;;;;;;5088692;28;19978;-70
2024/01/01 06:07:16;;;;;;;;;;;5.50;99.90;;;;;;5091153;28;19924;-70
2024/01/01 06:09:43;;;;;;;;;;;5.50;99.90;;;;;;5091318;28;19924;-70
2024/01/01 06:12:09;;;;;;;;;;;5.50;99.90;;;;;;5089048;28;19950;-70
2024/01/01 06:14:36;;;;;;;;;;;5.60;99.90;;;;;;5087933;28;20386;-70
2024/01/01 06:17:03;;;;;;;;;;;5.50;99.90;;;;;;5087894;28;19924;-70
2024/01/01 06:19:29;;;;;;;;;;;5.60;99.90;;;;;;5087555;28;20020;-70
2024/01/01 06:21:56;;;;;;;;;;;5.50;99.90;;;;;;5090818;28;19928;-70
2024/01/01 06:24:24;;;;;;;;;;;5.50;99.90;;;;;;5090917;28;19928;-70
2024/01/01 06:26:50;;;;;;;;;;;5.50;99.90;;;;;;5092186;28;19924;-70
2024/01/01 06:29:17;;;;;;;;;;;5.50;99.90;;;;;;5086843;28;19950;-70
2024/01/01 06:31:44;;;;;;;;;;;5.50;99.90;;;;;;5089191;28;19928;-70
2024/01/01 06:34:10;;;;;;;;;;;5.50;99.90;;;;;;5089057;28;19931;-70
2024/01/01 06:36:37;;;;;;;;;;;5.50;99.90;;;;;;5091852;28;20348;-70
2024/01/01 06:39:04;;;;;;;;;;;5.50;99.90;;;;;;5090344;28;19927;-70
2024/01/01 06:41:32;;;;;;;;;;;5.50;99.90;;;;;;5090828;28;20422;-70
2024/01/01 06:43:58;;;;;;;;;;;5.50;99.90;;;;;;5082084;28;19931;-70
2024/01/01 06:46:25;;;;;;;;;;;5.60;99.90;;;;;;5087039;28;19978;-71
2024/01/01 06:48:52;;;;;;;;;;;5.60;99.90;;;;;;5083928;28;20406;-70
2024/01/01 06:51:18;;;;;;;;;;;5.60;99.90;;;;;;5088030;28;19931;-70
2024/01/01 06:53:44;;;;;;;;;;;5.60;99.90;;;;;;5088591;28;19973;-71
2024/01/01 06:56:11;;;;;;;;;;;5.60;99.90;;;;;;5090547;28;19950;-74
2024/01/01 06:58:39;;;;;;;;;;;5.60;99.90;;;;;;5085823;28;19932;-70
2024/01/01 07:01:05;;;;;;;;;;;5.50;99.90;;;;;;5078378;28;19970;-68
2024/01/01 07:03:32;;;;;;;;;;;5.60;99.90;;;;;;5085376;28;19985;-68
2024/01/01 07:05:58;;;;;;;;;;;5.60;99.90;;;;;;5090146;28;19924;-69
2024/01/01 07:08:25;;;;;;;;;;;5.50;99.90;;;;;;5091575;28;19977;-68
2024/01/01 07:10:51;;;;;;;;;;;5.60;99.90;;;;;;5091225;28;19993;-68
2024/01/01 07:13:18;;;;;;;;;;;5.60;99.90;;;;;;5089756;28;19928;-69
2024/01/01 07:15:46;;;;;;;;;;;5.60;99.90;;;;;;5093087;28;19974;-68
2024/01/01 07:18:12;;;;;;;;;;;5.70;99.90;;;;;;5089647;28;19979;-69
2024/01/01 07:20:39;;;;;;;;;;;5.70;99.90;;;;;;5088970;28;19928;-69
2024/01/01 07:23:05;;;;;;;;;;;5.70;99.90;;;;;;5090897;28;19924;-69
2024/01/01 07:25:32;;;;;;;;;;;5.70;99.90;;;;;;5087980;28;19924;-69
2024/01/01 07:27:58;;;;;;;;;;;5.70;99.90;;;;;;5091059;28;19924;-69
2024/01/01 07:30:25;;;;;;;;;;;5.80;99.90;;;;;;5087907;28;20017;-68
2024/01/01 07:32:52;;;;;;;;;;;5.90;99.90;;;;;;5090956;28;19940;-68
2024/01/01 07:35:19;;;;;;;;;;;6.00;99.90;;;;;;5087986;28;19923;-68
2024/01/01 07:37:46;;;;;;;;;;;6.10;99.90;;;;;;5090136;28;20275;-68
2024/01/01 07:40:12;;;;;;;;;;;6.10;99.90;;;;;;5085312;28;19928;-69
2024/01/01 07:42:39;;;;;;;;;;;6.10;99.90;;;;;;5083172;28;20343;-68
2024/01/01 07:45:05;;;;;;;;;;;6.10;99.90;;;;;;5090295;28;19977;-68
2024/01/01 07:47:32;;;;;;;;;;;6.10;99.90;;;;;;5090576;28;20366;-68
2024/01/01 07:50:00;;;;;;;;;;;5.90;99.90;;;;;;5093769;28;19924;-69
2024/01/01 07:52:27;;;;;;;;;;;5.80;99.90;;;;;;5092636;28;20011;-69
2024/01/01 07:54:57;;;;;;;;;;;5.80;99.90;;;;;;5089152;28;19925;-69
2024/01/01 07:57:24;;;;;;;;;;;5.80;99.90;;;;;;5084932;28;19929;-69
2024/01/01 07:59:51;;;;;;;;;;;5.70;99.90;;;;;;5091184;28;19928;-69
2024/01/01 08:02:18;;;;;;;;;;;5.60;99.90;;;;;;5092081;28;19924;-69
2024/01/01 08:04:45;;;;;;;;;;;5.60;99.90;;;;;;5093957;28;19990;-69
2024/01/01 08:07:12;;;;;;;;;;;5.50;99.90;;;;;;5093100;28;19924;-69
2024/01/01 08:09:39;;;;;;;;;;;5.50;99.90;;;;;;5089146;28;19932;-69
2024/01/01 08:12:06;;;;;;;;;;;5.60;99.90;;;;;;5091602;28;19928;-69
2024/01/01 08:14:32;;;;;;;;;;;5.60;99.90;;;;;;5097383;28;20352;-69
2024/01/01 08:16:59;;;;;;;;;;;5.60;99.90;;;;;;5093073;28;19950;-69
2024/01/01 08:19:25;;;;;;;;;;;5.70;99.90;;;;;;5092316;28;20377;-69
2024/01/01 08:21:52;;;;;;;;;;;5.70;99.90;;;;;;5089169;28;19993;-69
2024/01/01 08:24:20;;;;;;;;;;;5.70;99.90;;;;;;5090145;28;19977;-69
2024/01/01 08:26:47;;;;;;;;;;;5.80;99.90;;;;;;5081598;28;19924;-68
2024/01/01 08:29:13;;;;;;;;;;;5.80;99.90;;;;;;5093553;28;19969;-69
2024/01/01 08:31:39;;;;;;;;;;;5.80;99.90;;;;;;5090838;28;19924;-69
2024/01/01 08:34:06;;;;;;;;;;;5.90;99.90;;;;;;5093968;28;19928;-69
2024/01/01 08:36:32;;;;;;;;;;;6.10;99.90;;;;;;5088969;28;19928;-69
2024/01/01 08:38:59;;;;;;;;;;;6.40;99.90;;;;;;5085947;28;19936;-69
2024/01/01 08:41:27;;;;;;;;;;;6.70;99.90;;;;;;5087793;28;19997;-69
2024/01/01 08:43:57;;;;;;;;;;;6.90;99.90;;;;;;5089725;28;19936;-69
2024/01/01 08:46:24;;;;;;;;;;;7.10;99.90;;;;;;5089075;28;19939;-69
2024/01/01 08:48:51;;;;;;;;;;;7.20;99.90;;;;;;5089894;28;19924;-69
2024/01/01 08:51:17;;;;;;;;;;;7.30;99.90;;;;;;5089610;28;19924;-69
2024/01/01 08:53:44;;;;;;;;;;;7.30;99.90;;;;;;5090562;28;20355;-69
2024/01/01 08:56:10;;;;;;;;;;;7.30;99.90;;;;;;5089856;28;19970;-69
2024/01/01 08:58:38;;;;;;;;;;;7.20;99.90;;;;;;5089407;28;19981;-68
2024/01/01 09:01:06;;;;;;;;;;;7.10;99.90;;;;;;5089549;28;19973;-69
2024/01/01 09:03:32;;;;;;;;;;;6.90;99.90;;;;;;5089664;28;21095;-69
2024/01/01 09:05:59;;;;;;;;;;;6.90;99.90;;;;;;5089859;28;20408;-69
2024/01/01 09:08:26;;;;;;;;;;;6.80;99.90;;;;;;5089116;28;19932;-69
2024/01/01 09:10:52;;;;;;;;;;;6.80;99.90;;;;;;5089371;28;19935;-68
2024/01/01 09:13:19;;;;;;;;;;;6.80;99.90;;;;;;5090171;28;19928;-69
2024/01/01 09:15:46;;;;;;;;;;;6.80;99.90;;;;;;5088301;28;19982;-69
2024/01/01 09:18:13;;;;;;;;;;;6.90;99.90;;;;;;5089312;28;19928;-69
2024/01/01 09:20:41;;;;;;;;;;;6.80;99.90;;;;;;5089232;28;19985;-69
2024/01/01 09:23:08;;;;;;;;;;;6.80;99.90;;;;;;5088921;28;19964;-68
2024/01/01 09:25:34;;;;;;;;;;;6.80;99.90;;;;;;5086807;28;19981;-68
2024/01/01 09:28:01;;;;;;;;;;;6.90;99.90;;;;;;5088298;28;19932;-69
2024/01/01 09:30:27;;;;;;;;;;;6.80;99.90;;;;;;5086904;28;20017;-69
2024/01/01 09:32:55;;;;;;;;;;;6.90;99.90;;;;;;5087081;28;20442;-68
2024/01/01 09:35:22;;;;;;;;;;;6.90;99.90;;;;;;5084210;28;19925;-70
2024/01/01 09:37:52;;;;;;;;;;;6.90;99.90;;;;;;5081327;28;20499;-70
2024/01/01 09:40:20;;;;;;;;;;;6.90;99.90;;;;;;5085953;28;19932;-70
2024/01/01 09:42:47;;;;;;;;;;;6.90;99.90;;;;;;5086815;28;19924;-70
2024/01/01 09:45:14;;;;;;;;;;;6.80;99.90;;;;;;5088069;28;19932;-70
2024/01/01 09:47:41;;;;;;;;;;;6.90;99.90;;;;;;5087587;28;19932;-70
2024/01/01 09:50:09;;;;;;;;;;;6.90;99.90;;;;;;5086970;28;19928;-70
2024/01/01 09:52:35;;;;;;;;;;;6.90;99.90;;;;;;5087461;28;19936;-70
2024/01/01 09:55:02;;;;;;;;;;;6.90;99.90;;;;;;5087609;28;19931;-70
2024/01/01 09:57:28;;;;;;;;;;;6.90;99.90;;;;;;5086705;28;19932;-70
2024/01/01 09:59:55;;;;;;;;;;;6.90;99.90;;;;;;5087762;28;19936;-68
2024/01/01 10:02:23;;;;;;;;;;;6.90;99.90;;;;;;5087927;28;19932;-69
2024/01/01 10:04:49;;;;;;;;;;;7.00;99.90;;;;;;5087645;28;20422;-69
2024/01/01 10:07:26;;;;;;;;;;;7.00;99.90;;;;;;5086507;28;20021;-67
2024/01/01 10:09:53;;;;;;;;;;;7.10;99.90;;;;;;5087808;28;19924;-68
2024/01/01 10:12:22;;;;;;;;;;;7.00;99.90;;;;;;5088219;28;19932;-68
2024/01/01 10:14:49;;;;;;;;;;;7.00;99.90;;;;;;5082678;28;19943;-70
2024/01/01 10:17:17;;;;;;;;;;;7.00;99.90;;;;;;5086990;28;19932;-71
2024/01/01 10:19:48;;;;;;;;;;;6.90;99.90;;;;;;5086128;28;19984;-72
2024/01/01 10:22:14;;;;;;;;;;;6.90;99.90;;;;;;5087613;28;19942;-69
2024/01/01 10:24:42;;;;;;;;;;;6.80;99.90;;;;;;5086233;28;19928;-68
2024/01/01 10:27:09;;;;;;;;;;;6.70;99.90;;;;;;5085845;28;19958;-68
2024/01/01 10:29:36;;;;;;;;;;;6.70;99.90;;;;;;5087234;28;19932;-67
2024/01/01 10:32:02;;;;;;;;;;;6.70;99.90;;;;;;5086926;28;20043;-68
2024/01/01 10:34:30;;;;;;;;;;;6.70;99.90;;;;;;5087820;28;19963;-67
2024/01/01 10:36:56;;;;;;;;;;;6.70;99.90;;;;;;5086849;28;20360;-68
2024/01/01 10:39:23;;;;;;;;;;;6.70;99.90;;;;;;5085699;28;20001;-68
2024/01/01 10:41:51;;;;;;;;;;;6.80;99.90;;;;;;5086834;28;20418;-68
2024/01/01 10:44:18;;;;;;;;;;;6.80;99.90;;;;;;5087658;28;19924;-68
2024/01/01 10:46:46;;;;;;;;;;;6.90;99.90;;;;;;5086222;28;19932;-69
2024/01/01 10:49:15;;;;;;;;;;;6.90;99.90;;;;;;5087410;28;19924;-68
2024/01/01 10:51:47;;;;;;;;;;;7.00;99.90;;;;;;5086328;28;19931;-68
2024/01/01 10:54:31;;;;;;;;;;;7.00;99.90;;;;;;5087544;28;19932;-68
2024/01/01 10:57:06;;;;;;;;;;;7.10;99.90;;;;;;5085623;28;19977;-68
2024/01/01 10:59:38;;;;;;;;;;;7.10;99.90;;;;;;5087079;28;20374;-68
2024/01/01 11:02:05;;;;;;;;;;;7.10;99.90;;;;;;5087236;28;19924;-68
2024/01/01 11:04:31;;;;;;;;;;;7.10;99.90;;;;;;5087360;28;19928;-68
2024/01/01 11:07:02;;;;;;;;;;;7.10;99.90;;;;;;5086438;28;20332;-68
2024/01/01 11:09:33;;;;;;;;;;;7.20;99.90;;;;;;5086591;28;20013;-68
2024/01/01 11:12:02;;;;;;;;;;;7.30;99.90;;;;;;5086644;28;19938;-71
2024/01/01 11:14:30;;;;;;;;;;;7.30;99.90;;;;;;5086295;28;19924;-68
2024/01/01 11:16:57;;;;;;;;;;;7.30;99.90;;;;;;5083452;28;20023;-70
2024/01/01 11:19:39;;;;;;;;;;;7.30;99.90;;;;;;5085730;28;19932;-68
2024/01/01 11:22:29;;;;;;;;;;;7.30;99.90;;;;;;5086902;28;19940;-69
2024/01/01 11:24:56;;;;;;;;;;;7.30;99.90;;;;;;5086000;28;20422;-68
2024/01/01 11:27:27;;;;;;;;;;;7.30;99.90;;;;;;5086709;28;19978;-69
2024/01/01 11:29:53;;;;;;;;;;;7.30;99.90;;;;;;5084950;28;19932;-69
2024/01/01 11:32:20;;;;;;;;;;;7.30;99.90;;;;;;5086695;28;20025;-68
2024/01/01 11:35:02;;;;;;;;;;;7.40;99.90;;;;;;5087004;28;19931;-68
2024/01/01 11:37:28;;;;;;;;;;;7.40;99.90;;;;;;5085517;28;19977;-69
2024/01/01 11:39:58;;;;;;;;;;;7.40;99.90;;;;;;5086438;28;20010;-69
2024/01/01 11:42:26;;;;;;;;;;;7.40;99.90;;;;;;5086534;28;19978;-69
2024/01/01 11:45:05;;;;;;;;;;;7.40;99.90;;;;;;5085914;28;19970;-69
2024/01/01 11:47:31;;;;;;;;;;;7.40;99.90;;;;;;5086874;28;19924;-70
2024/01/01 11:49:58;;;;;;;;;;;7.40;99.90;;;;;;5085506;28;19932;-69
2024/01/01 11:52:24;;;;;;;;;;;7.30;99.90;;;;;;5086675;28;19940;-69
2024/01/01 11:54:51;;;;;;;;;;;7.40;99.90;;;;;;5086032;28;19970;-70
2024/01/01 11:57:17;;;;;;;;;;;7.40;99.90;;;;;;5085714;28;19928;-70
2024/01/01 11:59:46;;;;;;;;;;;7.40;99.90;;;;;;5086292;28;19985;-70
2024/01/01 12:02:12;;;;;;;;;;;7.50;99.90;;;;;;5086509;28;19924;-70
2024/01/01 12:04:39;;;;;;;;;;;7.50;99.90;;;;;;5086039;28;19932;-68
2024/01/01 12:07:06;;;;;;;;;;;7.50;99.90;;;;;;5085624;28;19933;-69
2024/01/01 12:09:33;;;;;;;;;;;7.50;99.90;;;;;;5086740;28;19932;-70
2024/01/01 12:12:05;;;;;;;;;;;7.50;99.90;;;;;;5086354;28;19932;-70
2024/01/01 12:14:32;;;;;;;;;;;7.50;99.90;;;;;;5086334;28;19932;-71
2024/01/01 12:16:59;;;;;;;;;;;7.50;99.90;;;;;;5085450;28;19970;-69
2024/01/01 12:19:26;;;;;;;;;;;7.50;99.90;;;;;;5085659;28;20369;-70
2024/01/01 12:21:53;;;;;;;;;;;7.50;99.90;;;;;;5085700;28;19940;-70
2024/01/01 12:24:20;;;;;;;;;;;7.50;99.90;;;;;;5085892;28;19925;-71
2024/01/01 12:26:48;;;;;;;;;;;7.50;99.90;;;;;;5085617;28;19928;-70
2024/01/01 12:29:15;;;;;;;;;;;7.50;99.90;;;;;;5088531;28;19970;-69
2024/01/01 12:31:42;;;;;;;;;;;7.50;99.90;;;;;;5090043;28;19924;-68
2024/01/01 12:34:12;;;;;;;;;;;7.40;99.90;;;;;;5090068;28;20007;-69
2024/01/01 12:36:39;;;;;;;;;;;7.40;99.90;;;;;;5090084;28;20344;-68
2024/01/01 12:39:05;;;;;;;;;;;7.30;99.90;;;;;;5084376;28;19985;-69
2024/01/01 12:41:32;;;;;;;;;;;7.30;99.90;;;;;;5088448;28;19928;-69
2024/01/01 12:43:59;;;;;;;;;;;7.30;99.90;;;;;;5088708;28;19939;-69
2024/01/01 12:46:25;;;;;;;;;;;7.30;99.90;;;;;;5089276;28;19938;-69
2024/01/01 12:48:52;;;;;;;;;;;7.30;99.90;;;;;;5088382;28;20349;-69
2024/01/01 12:51:23;;;;;;;;;;;7.30;99.90;;;;;;5089295;28;20423;-68
2024/01/01 12:53:49;;;;;;;;;;;7.30;99.90;;;;;;5088306;28;20020;-68
2024/01/01 12:56:16;;;;;;;;;;;7.40;99.90;;;;;;5089027;28;19928;-68
2024/01/01 12:58:43;;;;;;;;;;;7.40;99.90;;;;;;5088473;28;21488;-68
2024/01/01 13:01:10;;;;;;;;;;;7.40;99.90;;;;;;5088544;28;19931;-68
2024/01/01 13:03:37;;;;;;;;;;;7.50;99.90;;;;;;5089552;28;19932;-68
2024/01/01 13:06:04;;;;;;;;;;;7.50;99.90;;;;;;5088554;28;19939;-68
2024/01/01 13:08:31;;;;;;;;;;;7.60;99.90;;;;;;5088326;28;19936;-70
2024/01/01 13:10:58;;;;;;;;;;;7.60;99.90;;;;;;5087666;28;19932;-70
2024/01/01 13:13:24;;;;;;;;;;;7.60;99.90;;;;;;5088537;28;20290;-70
2024/01/01 13:15:51;;;;;;;;;;;7.70;99.90;;;;;;5088065;28;19985;-69
2024/01/01 13:18:17;;;;;;;;;;;7.80;99.90;;;;;;5088397;28;19935;-68
2024/01/01 13:20:44;;;;;;;;;;;7.90;99.90;;;;;;5087897;28;19924;-68
2024/01/01 13:23:15;;;;;;;;;;;7.90;99.90;;;;;;5088937;28;19932;-70
2024/01/01 13:25:44;;;;;;;;;;;7.90;99.90;;;;;;5087760;28;20317;-70
2024/01/01 13:28:11;;;;;;;;;;;8.00;99.90;;;;;;5088223;28;20317;-71
2024/01/01 13:30:38;;;;;;;;;;;8.10;99.90;;;;;;5087186;28;19932;-72
2024/01/01 13:33:05;;;;;;;;;;;8.20;99.90;;;;;;5087996;28;19969;-69
2024/01/01 13:35:31;;;;;;;;;;;8.30;99.90;;;;;;5088823;28;19928;-69
2024/01/01 13:37:58;;;;;;;;;;;8.30;99.90;;;;;;5088295;28;19986;-69
2024/01/01 13:40:24;;;;;;;;;;;8.30;99.90;;;;;;5087182;28;19931;-69
2024/01/01 13:42:52;;;;;;;;;;;8.30;99.90;;;;;;5087492;28;19928;-70
2024/01/01 13:45:19;;;;;;;;;;;8.30;99.90;;;;;;5087781;28;19982;-70
2024/01/01 13:47:47;;;;;;;;;;;8.30;99.90;;;;;;5088376;28;19981;-70
2024/01/01 13:50:13;;;;;;;;;;;8.40;99.90;;;;;;5087143;28;20394;-69
2024/01/01 13:52:40;;;;;;;;;;;8.40;99.90;;;;;;5086843;28;19931;-70
2024/01/01 13:55:07;;;;;;;;;;;8.40;99.90;;;;;;5086830;28;19935;-70
2024/01/01 13:57:34;;;;;;;;;;;8.50;99.90;;;;;;5087076;28;19943;-69
2024/01/01 14:00:03;;;;;;;;;;;8.50;99.90;;;;;;5086210;28;21040;-76
2024/01/01 14:02:30;;;;;;;;;;;8.40;99.90;;;;;;5087432;28;20001;-70
2024/01/01 14:04:56;;;;;;;;;;;8.50;99.90;;;;;;5088479;28;19928;-72
2024/01/01 14:07:23;;;;;;;;;;;8.60;99.90;;;;;;5087976;28;19932;-69
2024/01/01 14:09:49;;;;;;;;;;;8.40;99.90;;;;;;5088155;28;21064;-69
2024/01/01 14:12:16;;;;;;;;;;;8.30;99.90;;;;;;5087254;28;19932;-69
2024/01/01 14:14:43;;;;;;;;;;;8.10;99.90;;;;;;5087380;28;20418;-68
2024/01/01 14:17:11;;;;;;;;;;;8.00;99.90;;;;;;5086738;28;19947;-67
2024/01/01 14:19:37;;;;;;;;;;;8.10;99.90;;;;;;5087304;28;19965;-72
2024/01/01 14:22:04;;;;;;;;;;;8.10;99.90;;;;;;5087628;28;19924;-69
2024/01/01 14:24:30;;;;;;;;;;;8.50;99.90;;;;;;5088114;28;19931;-67
2024/01/01 14:26:57;;;;;;;;;;;9.10;99.90;;;;;;5086709;28;19932;-67
2024/01/01 14:29:24;;;;;;;;;;;9.20;99.90;;;;;;5087317;28;19924;-67
2024/01/01 14:31:50;;;;;;;;;;;8.90;99.90;;;;;;5087588;28;20033;-67